createdAt,value
2023-03-16T00:01:10.072Z,100.00
2023-03-16T00:03:36.788Z,100.00
2023-03-16T00:06:03.669Z,100.00
2023-03-16T00:08:30.103Z,100.00
2023-03-16T00:10:56.572Z,100.00
2023-03-16T00:13:24.991Z,100.00
2023-03-16T00:15:59.572Z,100.00
2023-03-16T00:18:28.154Z,100.00
2023-03-16T00:20:58.203Z,100.00
2023-03-16T00:23:28.642Z,100.00
2023-03-16T00:25:59.440Z,100.00
2023-03-16T00:28:27.981Z,100.00
2023-03-16T00:30:59.065Z,100.00
2023-03-16T00:33:26.348Z,100.00
2023-03-16T00:36:02.011Z,100.00
2023-03-16T00:38:31.890Z,100.00
2023-03-16T00:40:58.415Z,100.00
2023-03-16T00:43:27.305Z,100.00
2023-03-16T00:46:06.457Z,100.00
2023-03-16T00:48:37.430Z,100.00
2023-03-16T00:51:06.458Z,100.00
2023-03-16T00:53:34.217Z,100.00
2023-03-16T00:56:04.226Z,100.00
2023-03-16T00:58:35.899Z,100.00
2023-03-16T01:01:13.617Z,100.00
2023-03-16T01:03:40.641Z,100.00
2023-03-16T01:06:10.188Z,100.00
2023-03-16T01:08:38.447Z,100.00
2023-03-16T01:11:07.772Z,100.00
2023-03-16T01:13:34.659Z,100.00
2023-03-16T01:16:01.138Z,100.00
2023-03-16T01:18:28.445Z,100.00
2023-03-16T01:20:54.858Z,100.00
2023-03-16T01:23:21.391Z,100.00
2023-03-16T01:25:54.130Z,100.00
2023-03-16T01:28:25.030Z,100.00
2023-03-16T01:30:54.231Z,100.00
2023-03-16T01:33:26.231Z,100.00
2023-03-16T01:36:01.756Z,100.00
2023-03-16T01:38:28.729Z,100.00
2023-03-16T01:40:56.202Z,100.00
2023-03-16T01:43:25.772Z,100.00
2023-03-16T01:46:09.568Z,100.00
2023-03-16T01:48:51.682Z,100.00
2023-03-16T01:51:24.094Z,100.00
2023-03-16T01:53:53.604Z,100.00
2023-03-16T01:56:27.261Z,100.00
2023-03-16T01:58:58.708Z,100.00
2023-03-16T02:01:27.393Z,100.00
2023-03-16T02:04:03.036Z,100.00
2023-03-16T02:06:29.909Z,100.00
2023-03-16T02:08:57.390Z,100.00
2023-03-16T02:11:24.747Z,100.00
2023-03-16T02:13:52.710Z,100.00
2023-03-16T02:16:20.085Z,100.00
2023-03-16T02:18:47.500Z,100.00
2023-03-16T02:21:41.636Z,100.00
2023-03-16T02:24:08.290Z,100.00
2023-03-16T02:26:45.775Z,100.00
2023-03-16T02:29:47.508Z,100.00
2023-03-16T02:32:14.879Z,100.00
2023-03-16T02:34:42.474Z,100.00
2023-03-16T02:37:09.726Z,100.00
2023-03-16T02:39:36.247Z,100.00
2023-03-16T02:42:02.949Z,100.00
2023-03-16T02:44:35.321Z,100.00
2023-03-16T02:47:16.595Z,100.00
2023-03-16T02:49:45.245Z,100.00
2023-03-16T02:52:12.635Z,100.00
2023-03-16T02:54:39.214Z,100.00
2023-03-16T02:57:05.759Z,100.00
2023-03-16T02:59:32.304Z,100.00
2023-03-16T03:01:58.796Z,100.00
2023-03-16T03:04:25.246Z,100.00
2023-03-16T03:06:51.977Z,100.00
2023-03-16T03:09:19.472Z,100.00
2023-03-16T03:11:48.929Z,100.00
2023-03-16T03:14:16.886Z,100.00
2023-03-16T03:16:46.855Z,100.00
2023-03-16T03:19:13.780Z,100.00
2023-03-16T03:21:41.549Z,100.00
2023-03-16T03:24:09.465Z,100.00
2023-03-16T03:26:38.015Z,100.00
2023-03-16T03:29:04.506Z,100.00
2023-03-16T03:31:31.033Z,100.00
2023-03-16T03:33:57.545Z,100.00
2023-03-16T03:36:24.005Z,100.00
2023-03-16T03:38:50.473Z,100.00
2023-03-16T03:41:16.907Z,100.00
2023-03-16T03:43:44.281Z,100.00
2023-03-16T03:46:10.900Z,100.00
2023-03-16T03:48:37.398Z,100.00
2023-03-16T03:51:04.060Z,100.00
2023-03-16T03:53:30.763Z,100.00
2023-03-16T03:55:57.261Z,100.00
2023-03-16T03:58:23.769Z,100.00
2023-03-16T04:00:51.478Z,100.00
2023-03-16T04:03:17.947Z,100.00
2023-03-16T04:05:44.384Z,100.00
2023-03-16T04:08:11.676Z,100.00
2023-03-16T04:10:38.212Z,100.00
2023-03-16T04:13:04.701Z,100.00
2023-03-16T04:15:32.994Z,100.00
2023-03-16T04:18:00.086Z,100.00
2023-03-16T04:20:26.868Z,100.00
2023-03-16T04:22:58.401Z,100.00
2023-03-16T04:25:30.738Z,100.00
2023-03-16T04:27:57.627Z,100.00
2023-03-16T04:30:24.105Z,100.00
2023-03-16T04:32:52.332Z,100.00
2023-03-16T04:35:19.762Z,100.00
2023-03-16T04:37:46.190Z,100.00
2023-03-16T04:40:16.030Z,100.00
2023-03-16T04:42:46.728Z,100.00
2023-03-16T04:45:14.936Z,100.00
2023-03-16T04:47:41.719Z,100.00
2023-03-16T04:50:09.346Z,100.00
2023-03-16T04:52:36.112Z,100.00
2023-03-16T04:55:02.656Z,100.00
2023-03-16T04:57:32.327Z,100.00
2023-03-16T04:59:58.767Z,100.00
2023-03-16T05:02:25.233Z,100.00
2023-03-16T05:04:51.688Z,100.00
2023-03-16T05:07:18.683Z,100.00
2023-03-16T05:09:45.190Z,100.00
2023-03-16T05:12:11.836Z,100.00
2023-03-16T05:14:38.465Z,100.00
2023-03-16T05:17:05.107Z,100.00
2023-03-16T05:19:31.791Z,100.00
2023-03-16T05:21:58.672Z,100.00
2023-03-16T05:24:25.337Z,100.00
2023-03-16T05:26:52.217Z,100.00
2023-03-16T05:29:18.782Z,100.00
2023-03-16T05:31:47.496Z,100.00
2023-03-16T05:34:13.989Z,100.00
2023-03-16T05:36:40.423Z,100.00
2023-03-16T05:39:08.505Z,100.00
2023-03-16T05:41:34.969Z,100.00
2023-03-16T05:44:01.551Z,100.00
2023-03-16T05:46:27.991Z,100.00
2023-03-16T05:48:54.460Z,100.00
2023-03-16T05:51:20.923Z,100.00
2023-03-16T05:53:48.680Z,100.00
2023-03-16T05:56:15.158Z,100.00
2023-03-16T05:58:42.269Z,100.00
2023-03-16T06:01:09.600Z,100.00
2023-03-16T06:03:40.893Z,100.00
2023-03-16T06:06:07.422Z,100.00
2023-03-16T06:08:33.886Z,100.00
2023-03-16T06:11:00.532Z,100.00
2023-03-16T06:13:26.945Z,100.00
2023-03-16T06:15:53.448Z,100.00
2023-03-16T06:18:19.953Z,100.00
2023-03-16T06:20:47.272Z,100.00
2023-03-16T06:23:15.018Z,100.00
2023-03-16T06:25:41.585Z,100.00
2023-03-16T06:28:08.104Z,100.00
2023-03-16T06:30:34.510Z,100.00
2023-03-16T06:33:02.126Z,100.00
2023-03-16T06:35:31.594Z,100.00
2023-03-16T06:37:58.037Z,100.00
2023-03-16T06:40:27.921Z,100.00
2023-03-16T06:42:57.246Z,100.00
2023-03-16T06:45:25.585Z,100.00
2023-03-16T06:47:54.332Z,100.00
2023-03-16T06:50:21.077Z,100.00
2023-03-16T06:52:47.480Z,100.00
2023-03-16T06:55:14.533Z,100.00
2023-03-16T06:57:42.034Z,100.00
2023-03-16T07:00:11.485Z,100.00
2023-03-16T07:02:40.184Z,100.00
2023-03-16T07:05:07.774Z,100.00
2023-03-16T07:07:34.347Z,100.00
2023-03-16T07:10:02.212Z,100.00
2023-03-16T07:12:28.706Z,100.00
2023-03-16T07:14:55.158Z,100.00
2023-03-16T07:17:21.716Z,100.00
2023-03-16T07:19:48.199Z,100.00
2023-03-16T07:22:14.649Z,100.00
2023-03-16T07:24:41.767Z,100.00
2023-03-16T07:27:08.273Z,100.00
2023-03-16T07:29:34.750Z,100.00
2023-03-16T07:32:01.439Z,100.00
2023-03-16T07:34:28.133Z,100.00
2023-03-16T07:36:55.215Z,100.00
2023-03-16T07:39:21.675Z,100.00
2023-03-16T07:41:51.317Z,100.00
2023-03-16T07:44:18.052Z,100.00
2023-03-16T07:46:44.476Z,100.00
2023-03-16T07:49:12.272Z,100.00
2023-03-16T07:51:48.887Z,100.00
2023-03-16T07:54:15.455Z,100.00
2023-03-16T07:56:48.874Z,100.00
2023-03-16T07:59:15.935Z,100.00
2023-03-16T08:01:42.412Z,100.00
2023-03-16T08:04:12.366Z,100.00
2023-03-16T08:14:48.875Z,100.00
2023-03-16T08:17:15.340Z,100.00
2023-03-16T08:19:43.047Z,100.00
2023-03-16T08:22:12.805Z,100.00
2023-03-16T08:24:39.270Z,100.00
2023-03-16T08:27:06.124Z,100.00
2023-03-16T08:29:34.510Z,100.00
2023-03-16T08:32:01.022Z,100.00
2023-03-16T08:34:28.801Z,100.00
2023-03-16T08:36:55.456Z,100.00
2023-03-16T08:39:22.605Z,100.00
2023-03-16T08:41:49.092Z,100.00
2023-03-16T08:44:15.567Z,100.00
2023-03-16T08:46:42.363Z,100.00
2023-03-16T08:49:09.022Z,100.00
2023-03-16T08:51:35.491Z,100.00
2023-03-16T08:54:01.911Z,100.00
2023-03-16T08:56:30.452Z,100.00
2023-03-16T08:58:57.499Z,100.00
2023-03-16T09:01:25.561Z,100.00
2023-03-16T09:03:56.446Z,100.00
2023-03-16T09:06:23.229Z,100.00
2023-03-16T09:08:49.799Z,100.00
2023-03-16T09:11:18.759Z,100.00
2023-03-16T09:13:46.047Z,100.00
2023-03-16T09:16:13.831Z,100.00
2023-03-16T09:18:40.576Z,100.00
2023-03-16T09:21:09.058Z,100.00
2023-03-16T09:23:37.558Z,100.00
2023-03-16T09:26:07.652Z,100.00
2023-03-16T09:28:36.386Z,100.00
2023-03-16T09:31:03.425Z,100.00
2023-03-16T09:33:31.922Z,100.00
2023-03-16T09:35:58.612Z,100.00
2023-03-16T09:38:26.656Z,100.00
2023-03-16T09:41:30.048Z,100.00
2023-03-16T09:44:15.656Z,100.00
2023-03-16T09:46:45.552Z,100.00
2023-03-16T09:49:16.493Z,100.00
2023-03-16T09:52:18.426Z,100.00
2023-03-16T09:55:01.890Z,100.00
2023-03-16T09:57:31.351Z,100.00
2023-03-16T10:00:10.759Z,100.00
2023-03-16T10:02:56.081Z,100.00
2023-03-16T10:05:23.992Z,100.00
2023-03-16T10:07:57.008Z,100.00
2023-03-16T10:10:38.628Z,100.00
2023-03-16T10:13:17.838Z,100.00
2023-03-16T10:15:46.973Z,100.00
2023-03-16T10:18:22.984Z,100.00
2023-03-16T10:20:52.275Z,100.00
2023-03-16T10:23:24.446Z,100.00
2023-03-16T10:25:53.253Z,100.00
2023-03-16T10:28:26.239Z,100.00
2023-03-16T10:30:58.510Z,100.00
2023-03-16T10:33:31.462Z,100.00
2023-03-16T10:35:57.939Z,100.00
2023-03-16T10:38:40.968Z,100.00
2023-03-16T10:41:22.873Z,100.00
2023-03-16T10:44:16.774Z,100.00
2023-03-16T10:46:50.584Z,100.00
2023-03-16T10:49:42.266Z,100.00
2023-03-16T10:52:39.895Z,100.00
2023-03-16T10:55:23.405Z,100.00
2023-03-16T10:57:53.655Z,100.00
2023-03-16T11:00:24.481Z,100.00
2023-03-16T11:02:54.258Z,100.00
2023-03-16T11:05:29.374Z,100.00
2023-03-16T11:08:20.434Z,100.00
2023-03-16T11:10:57.656Z,100.00
2023-03-16T11:13:37.633Z,100.00
2023-03-16T11:16:19.054Z,100.00
2023-03-16T11:18:49.374Z,100.00
2023-03-16T11:21:22.937Z,100.00
2023-03-16T11:23:55.110Z,100.00
2023-03-16T11:26:33.520Z,100.00
2023-03-16T11:29:41.603Z,100.00
2023-03-16T11:32:16.194Z,100.00
2023-03-16T11:34:44.820Z,96.06
2023-03-16T11:37:40.700Z,99.11
2023-03-16T11:40:26.168Z,96.88
2023-03-16T11:43:06.939Z,96.10
2023-03-16T11:45:45.626Z,98.16
2023-03-16T11:48:37.098Z,95.60
2023-03-16T11:51:15.508Z,94.46
2023-03-16T11:53:56.110Z,96.56
2023-03-16T11:56:48.800Z,92.15
2023-03-16T12:00:09.455Z,89.35
2023-03-16T12:02:45.392Z,90.78
2023-03-16T12:05:39.756Z,90.22
2023-03-16T12:08:43.403Z,91.57
2023-03-16T12:11:34.336Z,87.64
2023-03-16T12:14:23.339Z,87.04
2023-03-16T12:17:17.915Z,87.39
2023-03-16T12:19:56.697Z,87.85
2023-03-16T12:22:49.929Z,87.61
2023-03-16T12:25:22.086Z,87.75
2023-03-16T12:27:53.121Z,86.26
2023-03-16T12:30:41.157Z,85.74
2023-03-16T12:33:45.676Z,87.43
2023-03-16T12:36:49.247Z,88.77
2023-03-16T12:39:40.929Z,87.21
2023-03-16T12:42:51.760Z,86.20
2023-03-16T12:45:30.355Z,86.95
2023-03-16T12:48:19.898Z,88.75
2023-03-16T12:50:58.609Z,85.67
2023-03-16T12:53:39.420Z,87.74
2023-03-16T12:56:16.413Z,85.86
2023-03-16T12:58:50.226Z,86.48
2023-03-16T13:01:19.935Z,85.70
2023-03-16T13:03:49.483Z,84.30
2023-03-16T13:06:18.909Z,83.71
2023-03-16T13:08:52.365Z,82.89
2023-03-16T13:11:18.907Z,82.58
2023-03-16T13:13:52.539Z,85.58
2023-03-16T13:16:30.926Z,82.50
2023-03-16T13:18:58.218Z,83.06
2023-03-16T13:21:37.595Z,78.68
2023-03-16T13:24:28.846Z,77.17
2023-03-16T13:27:06.046Z,73.93
2023-03-16T13:29:33.078Z,76.46
2023-03-16T13:32:08.721Z,73.21
2023-03-16T13:34:46.586Z,72.20
2023-03-16T13:37:15.050Z,69.31
2023-03-16T13:39:41.689Z,69.30
2023-03-16T13:42:23.691Z,67.93
2023-03-16T13:44:57.797Z,66.92
2023-03-16T13:47:27.609Z,68.64
2023-03-16T13:50:00.080Z,66.71
2023-03-16T13:52:34.527Z,68.62
2023-03-16T13:55:14.681Z,67.64
2023-03-16T13:57:44.052Z,66.63
2023-03-16T14:00:21.428Z,67.18
2023-03-16T14:02:53.486Z,66.63
2023-03-16T14:05:23.058Z,66.69
2023-03-16T14:07:53.692Z,66.35
2023-03-16T14:10:21.753Z,66.50
2023-03-16T14:12:58.135Z,65.83
2023-03-16T14:15:27.697Z,68.22
2023-03-16T14:18:09.575Z,68.18
2023-03-16T14:20:41.230Z,65.51
2023-03-16T14:23:20.962Z,67.46
2023-03-16T14:25:48.932Z,65.08
2023-03-16T14:28:17.741Z,66.77
2023-03-16T14:31:02.149Z,65.62
2023-03-16T14:33:31.908Z,64.57
2023-03-16T14:36:07.617Z,65.06
2023-03-16T14:38:36.888Z,65.56
2023-03-16T14:41:24.300Z,64.90
2023-03-16T14:44:04.265Z,67.56
2023-03-16T14:46:33.333Z,65.95
2023-03-16T14:49:08.707Z,66.57
2023-03-16T14:51:38.173Z,66.20
2023-03-16T14:54:17.124Z,66.67
2023-03-16T14:56:51.704Z,66.20
2023-03-16T14:59:18.664Z,66.82
2023-03-16T15:01:46.544Z,65.74
2023-03-16T15:04:15.980Z,66.75
2023-03-16T15:06:42.479Z,67.89
2023-03-16T15:09:27.952Z,67.42
2023-03-16T15:11:55.567Z,67.76
2023-03-16T15:14:42.287Z,69.39
2023-03-16T15:17:09.412Z,68.41
2023-03-16T15:19:36.497Z,68.43
2023-03-16T15:22:03.771Z,68.68
2023-03-16T15:24:32.169Z,67.01
2023-03-16T15:26:58.993Z,66.92
2023-03-16T15:29:25.578Z,68.54
2023-03-16T15:31:54.495Z,66.88
2023-03-16T15:34:22.444Z,67.34
2023-03-16T15:36:49.284Z,66.95
2023-03-16T15:39:23.703Z,66.92
2023-03-16T15:41:50.617Z,69.06
2023-03-16T15:44:17.227Z,68.77
2023-03-16T15:46:43.774Z,67.75
2023-03-16T15:49:10.274Z,67.57
2023-03-16T15:51:36.827Z,69.03
2023-03-16T15:54:05.999Z,69.29
2023-03-16T15:56:47.245Z,71.24
2023-03-16T15:59:17.803Z,69.31
2023-03-16T16:01:46.368Z,69.97
2023-03-16T16:04:16.209Z,69.81
2023-03-16T16:06:43.570Z,71.66
2023-03-16T16:09:10.576Z,72.37
2023-03-16T16:11:37.565Z,70.36
2023-03-16T16:14:04.507Z,71.74
2023-03-16T16:16:33.575Z,69.61
2023-03-16T16:19:00.557Z,71.22
2023-03-16T16:21:32.660Z,71.38
2023-03-16T16:23:59.170Z,72.52
2023-03-16T16:26:41.628Z,73.08
2023-03-16T16:29:16.632Z,73.43
2023-03-16T16:31:43.347Z,72.24
2023-03-16T16:34:18.315Z,72.29
2023-03-16T16:36:45.044Z,74.99
2023-03-16T16:39:11.874Z,74.63
2023-03-16T16:41:39.761Z,74.19
2023-03-16T16:44:20.545Z,74.57
2023-03-16T16:46:49.281Z,74.79
2023-03-16T16:49:20.791Z,73.46
2023-03-16T16:51:47.527Z,75.05
2023-03-16T16:54:19.796Z,76.07
2023-03-16T16:56:48.892Z,77.76
2023-03-16T16:59:24.728Z,75.90
2023-03-16T17:01:52.536Z,77.79
2023-03-16T17:04:25.503Z,78.01
2023-03-16T17:06:55.492Z,78.59
2023-03-16T17:09:23.294Z,81.71
2023-03-16T17:11:51.245Z,82.46
2023-03-16T17:14:20.253Z,82.36
2023-03-16T17:16:48.245Z,83.23
2023-03-16T17:19:19.002Z,85.63
2023-03-16T17:21:46.426Z,83.75
2023-03-16T17:24:12.994Z,84.58
2023-03-16T17:26:43.925Z,86.05
2023-03-16T17:29:16.019Z,86.01
2023-03-16T17:31:42.859Z,87.64
2023-03-16T17:34:22.010Z,85.94
2023-03-16T17:36:48.933Z,86.43
2023-03-16T17:39:23.720Z,86.93
2023-03-16T17:41:58.607Z,86.85
2023-03-16T17:44:27.144Z,85.74
2023-03-16T17:46:54.463Z,87.39
2023-03-16T17:49:23.191Z,89.25
2023-03-16T17:51:49.749Z,89.85
2023-03-16T17:54:18.718Z,89.82
2023-03-16T17:56:47.367Z,89.36
2023-03-16T17:59:20.121Z,89.52
2023-03-16T18:01:47.507Z,91.52
2023-03-16T18:04:32.283Z,90.39
2023-03-16T18:06:58.802Z,92.18
2023-03-16T18:09:25.283Z,92.45
2023-03-16T18:11:52.106Z,94.88
2023-03-16T18:14:48.690Z,91.58
2023-03-16T18:17:28.427Z,92.41
2023-03-16T18:19:55.136Z,90.82
2023-03-16T18:22:24.638Z,90.83
2023-03-16T18:24:55.262Z,92.91
2023-03-16T18:27:22.332Z,91.81
2023-03-16T18:29:48.884Z,92.54
2023-03-16T18:32:27.322Z,92.70
2023-03-16T18:34:54.781Z,93.20
2023-03-16T18:37:29.657Z,94.42
2023-03-16T18:39:56.236Z,91.95
2023-03-16T18:42:28.319Z,91.88
2023-03-16T18:44:54.834Z,91.93
2023-03-16T18:47:23.929Z,90.74
2023-03-16T18:49:54.005Z,95.19
2023-03-16T18:52:28.358Z,94.94
2023-03-16T18:54:55.726Z,92.97
2023-03-16T18:57:25.192Z,93.12
2023-03-16T18:59:52.185Z,91.18
2023-03-16T19:02:38.922Z,91.40
2023-03-16T19:05:12.386Z,91.65
2023-03-16T19:07:42.199Z,92.62
2023-03-16T19:10:23.573Z,93.33
2023-03-16T19:12:50.884Z,93.14
2023-03-16T19:15:20.578Z,91.40
2023-03-16T19:17:47.751Z,93.87
2023-03-16T19:20:16.739Z,92.18
2023-03-16T19:22:46.020Z,94.42
2023-03-16T19:25:25.640Z,93.38
2023-03-16T19:27:52.591Z,93.19
2023-03-16T19:30:24.094Z,95.00
2023-03-16T19:32:52.124Z,95.19
2023-03-16T19:35:20.580Z,94.19
2023-03-16T19:37:47.580Z,92.75
2023-03-16T19:40:16.874Z,93.06
2023-03-16T19:42:44.673Z,93.15
2023-03-16T19:45:33.785Z,93.89
2023-03-16T19:48:00.543Z,94.05
2023-03-16T19:50:28.402Z,95.62
2023-03-16T19:52:58.832Z,96.72
2023-03-16T19:55:31.547Z,97.44
2023-03-16T19:58:01.942Z,97.76
2023-03-16T20:00:30.149Z,95.80
2023-03-16T20:02:57.390Z,96.62
2023-03-16T20:05:29.829Z,99.13
2023-03-16T20:07:59.464Z,98.33
2023-03-16T20:10:30.137Z,97.75
2023-03-16T20:12:58.668Z,98.96
2023-03-16T20:15:30.434Z,98.10
2023-03-16T20:17:57.226Z,98.42
2023-03-16T20:20:26.820Z,95.08
2023-03-16T20:22:55.298Z,95.35
2023-03-16T20:25:23.718Z,96.95
2023-03-16T20:27:56.410Z,96.57
2023-03-16T20:30:23.706Z,95.30
2023-03-16T20:32:50.739Z,97.75
2023-03-16T20:35:24.112Z,95.87
2023-03-16T20:37:52.781Z,98.69
2023-03-16T20:40:20.737Z,99.04
2023-03-16T20:42:48.433Z,100.00
2023-03-16T20:45:24.716Z,99.14
2023-03-16T20:47:52.296Z,100.00
2023-03-16T20:50:20.068Z,100.00
2023-03-16T20:52:46.698Z,100.00
2023-03-16T20:55:18.225Z,98.35
2023-03-16T20:57:44.959Z,98.79
2023-03-16T21:00:26.848Z,98.36
2023-03-16T21:02:54.932Z,100.00
2023-03-16T21:05:21.801Z,99.54
2023-03-16T21:07:48.347Z,99.97
2023-03-16T21:10:18.090Z,100.00
2023-03-16T21:12:51.317Z,100.00
2023-03-16T21:15:27.555Z,98.51
2023-03-16T21:17:56.002Z,100.00
2023-03-16T21:20:23.397Z,100.00
2023-03-16T21:22:49.901Z,98.54
2023-03-16T21:25:28.021Z,97.08
2023-03-16T21:27:56.124Z,98.83
2023-03-16T21:30:50.445Z,98.18
2023-03-16T21:33:25.118Z,98.08
2023-03-16T21:35:52.281Z,97.35
2023-03-16T21:38:20.631Z,100.00
2023-03-16T21:40:48.141Z,98.21
2023-03-16T21:43:15.584Z,98.18
2023-03-16T21:45:43.740Z,97.89
2023-03-16T21:48:37.771Z,100.00
2023-03-16T21:51:12.361Z,99.48
2023-03-16T21:53:39.547Z,98.64
2023-03-16T21:56:06.615Z,100.00
2023-03-16T21:58:33.067Z,98.89
2023-03-16T22:00:59.531Z,98.18
2023-03-16T22:03:50.138Z,100.00
2023-03-16T22:06:17.799Z,98.92
2023-03-16T22:08:44.524Z,98.12
2023-03-16T22:11:18.013Z,95.98
2023-03-16T22:13:44.610Z,95.04
2023-03-16T22:16:16.312Z,94.07
2023-03-16T22:18:44.474Z,93.79
2023-03-16T22:21:27.301Z,95.68
2023-03-16T22:23:55.184Z,95.21
2023-03-16T22:26:22.961Z,96.09
2023-03-16T22:28:50.841Z,95.83
2023-03-16T22:31:20.997Z,96.51
2023-03-16T22:33:48.729Z,97.28
2023-03-16T22:36:18.813Z,97.27
2023-03-16T22:38:46.345Z,96.84
2023-03-16T22:41:15.276Z,100.00
2023-03-16T22:43:44.684Z,97.44
2023-03-16T22:46:23.532Z,96.61
2023-03-16T22:48:52.096Z,96.19
2023-03-16T22:51:38.912Z,97.05
2023-03-16T22:54:11.032Z,96.22
2023-03-16T22:56:39.269Z,95.36
2023-03-16T22:59:08.278Z,95.81
2023-03-16T23:01:47.547Z,97.80
2023-03-16T23:04:32.490Z,95.40
2023-03-16T23:06:59.380Z,96.70
2023-03-16T23:09:26.323Z,99.68
2023-03-16T23:11:54.714Z,99.53
2023-03-16T23:14:24.919Z,100.00
2023-03-16T23:16:52.540Z,98.43
2023-03-16T23:19:25.411Z,98.06
2023-03-16T23:21:54.656Z,97.51
2023-03-16T23:24:22.113Z,96.05
2023-03-16T23:26:50.894Z,96.85
2023-03-16T23:29:17.676Z,95.81
2023-03-16T23:31:44.401Z,97.38
2023-03-16T23:34:16.885Z,96.22
2023-03-16T23:36:43.812Z,95.72
2023-03-16T23:39:11.284Z,96.54
2023-03-16T23:41:41.164Z,96.82
2023-03-16T23:44:08.872Z,95.65
2023-03-16T23:46:35.425Z,95.83
2023-03-16T23:49:04.240Z,96.43
2023-03-16T23:51:36.060Z,95.22
2023-03-16T23:54:30.485Z,94.26
2023-03-16T23:56:57.272Z,97.29
2023-03-16T23:59:24.153Z,96.91
